createdAt,value
2019-04-16T00:01:51.179Z,59.40
2019-04-16T00:04:43.526Z,59.60
2019-04-16T00:07:27.978Z,59.70
2019-04-16T00:10:14.249Z,59.80
2019-04-16T00:13:06.692Z,60.00
2019-04-16T00:15:40.939Z,60.60
2019-04-16T00:18:09.299Z,60.50
2019-04-16T00:20:50.944Z,60.50
2019-04-16T00:23:31.303Z,60.70
2019-04-16T00:26:01.798Z,60.70
2019-04-16T00:28:32.146Z,61.00
2019-04-16T00:31:04.671Z,61.40
2019-04-16T00:33:34.590Z,61.50
2019-04-16T00:36:05.318Z,62.20
2019-04-16T00:38:40.921Z,62.10
2019-04-16T00:41:07.757Z,62.50
2019-04-16T00:43:38.081Z,62.60
2019-04-16T00:46:11.607Z,62.10
2019-04-16T00:48:40.605Z,62.50
2019-04-16T00:51:11.042Z,62.40
2019-04-16T00:53:41.682Z,62.60
2019-04-16T00:56:13.377Z,62.70
2019-04-16T00:58:44.351Z,63.00
2019-04-16T01:01:14.845Z,63.00
2019-04-16T01:03:45.198Z,62.90
2019-04-16T01:06:15.684Z,63.20
2019-04-16T01:08:54.444Z,63.40
2019-04-16T01:11:18.563Z,63.60
2019-04-16T01:13:49.213Z,64.90
2019-04-16T01:16:19.677Z,63.50
2019-04-16T01:18:50.162Z,63.70
2019-04-16T01:21:20.614Z,63.90
2019-04-16T01:23:52.034Z,64.90
2019-04-16T01:26:24.214Z,64.20
2019-04-16T01:29:08.386Z,64.20
2019-04-16T01:31:47.750Z,64.60
2019-04-16T01:34:32.332Z,64.50
2019-04-16T01:37:34.088Z,64.30
2019-04-16T01:40:05.118Z,64.70
2019-04-16T01:42:36.594Z,65.20
2019-04-16T01:45:08.712Z,65.80
2019-04-16T01:47:39.125Z,65.60
2019-04-16T01:50:12.919Z,66.20
2019-04-16T01:52:41.946Z,66.70
2019-04-16T01:55:12.451Z,67.00
2019-04-16T01:57:43.207Z,67.30
2019-04-16T02:00:14.098Z,67.10
2019-04-16T02:02:47.903Z,66.20
2019-04-16T02:05:20.435Z,66.00
2019-04-16T02:07:51.223Z,66.60
2019-04-16T02:10:21.975Z,66.80
2019-04-16T02:12:52.655Z,67.30
2019-04-16T02:15:23.233Z,68.30
2019-04-16T02:17:55.443Z,68.30
2019-04-16T02:20:26.033Z,68.00
2019-04-16T02:22:56.628Z,68.20
2019-04-16T02:25:27.180Z,67.60
2019-04-16T02:27:58.115Z,67.90
2019-04-16T02:30:28.359Z,67.40
2019-04-16T02:32:58.750Z,67.40
2019-04-16T02:35:29.200Z,67.10
2019-04-16T02:37:59.838Z,66.80
2019-04-16T02:40:30.907Z,66.60
2019-04-16T02:43:06.648Z,66.50
2019-04-16T02:45:33.499Z,66.10
2019-04-16T02:48:06.019Z,66.30
2019-04-16T02:50:45.797Z,65.70
2019-04-16T02:53:34.265Z,65.90
2019-04-16T02:56:22.235Z,65.50
2019-04-16T02:59:09.711Z,65.00
2019-04-16T03:01:49.344Z,65.20
2019-04-16T03:04:26.727Z,65.00
2019-04-16T03:06:54.709Z,65.00
2019-04-16T03:09:25.282Z,64.40
2019-04-16T03:11:56.077Z,65.00
2019-04-16T03:14:29.785Z,64.60
2019-04-16T03:17:23.352Z,64.30
2019-04-16T03:19:54.733Z,64.30
2019-04-16T03:22:25.423Z,64.40
2019-04-16T03:24:56.024Z,63.90
2019-04-16T03:27:26.498Z,64.00
2019-04-16T03:30:02.983Z,64.30
2019-04-16T03:32:33.444Z,63.90
2019-04-16T03:35:01.086Z,64.20
2019-04-16T03:37:32.988Z,64.20
2019-04-16T03:40:15.114Z,64.20
2019-04-16T03:42:36.211Z,64.10
2019-04-16T03:45:08.968Z,64.10
2019-04-16T03:47:38.717Z,64.10
2019-04-16T03:50:11.151Z,64.20
2019-04-16T03:52:45.489Z,64.70
2019-04-16T03:55:13.547Z,65.00
2019-04-16T03:57:45.968Z,64.80
2019-04-16T04:00:17.691Z,65.00
2019-04-16T04:02:48.066Z,64.90
2019-04-16T04:05:18.463Z,65.00
2019-04-16T04:07:48.953Z,64.90
2019-04-16T04:10:30.362Z,64.80
2019-04-16T04:12:51.729Z,65.00
2019-04-16T04:15:26.031Z,65.80
2019-04-16T04:17:54.086Z,66.30
2019-04-16T04:20:24.485Z,65.70
2019-04-16T04:22:57.199Z,66.20
2019-04-16T04:25:26.947Z,66.60
2019-04-16T04:27:58.986Z,66.50
2019-04-16T04:30:29.678Z,66.70
2019-04-16T04:33:00.198Z,67.10
2019-04-16T04:35:30.816Z,67.40
2019-04-16T04:38:04.939Z,67.60
2019-04-16T04:40:44.399Z,67.80
2019-04-16T04:43:07.735Z,68.10
2019-04-16T04:45:41.488Z,68.40
2019-04-16T04:48:12.232Z,68.90
2019-04-16T04:50:43.106Z,68.40
2019-04-16T04:53:15.578Z,67.90
2019-04-16T04:55:45.846Z,68.00
2019-04-16T04:58:18.147Z,68.00
2019-04-16T05:00:48.672Z,68.20
2019-04-16T05:03:44.397Z,69.00
2019-04-16T05:06:19.524Z,69.20
2019-04-16T05:08:49.870Z,68.80
2019-04-16T05:11:20.486Z,68.50
2019-04-16T05:13:53.505Z,68.70
2019-04-16T05:16:23.069Z,68.60
2019-04-16T05:18:53.425Z,68.60
2019-04-16T05:21:24.176Z,68.30
2019-04-16T05:23:57.588Z,67.80
2019-04-16T05:26:26.857Z,67.20
2019-04-16T05:29:16.130Z,67.10
2019-04-16T05:31:43.390Z,67.40
2019-04-16T05:34:16.989Z,66.40
2019-04-16T05:36:47.700Z,65.80
2019-04-16T05:39:18.139Z,65.80
2019-04-16T05:41:52.879Z,65.60
2019-04-16T05:44:25.492Z,65.50
2019-04-16T05:46:55.883Z,65.10
2019-04-16T05:49:26.535Z,64.90
2019-04-16T05:52:02.830Z,64.60
2019-04-16T05:54:50.704Z,64.40
2019-04-16T05:57:27.493Z,64.00
2019-04-16T05:59:58.285Z,63.60
2019-04-16T06:02:37.158Z,63.50
2019-04-16T06:05:08.183Z,62.90
2019-04-16T06:07:38.759Z,62.80
2019-04-16T06:10:17.010Z,61.90
2019-04-16T06:13:02.050Z,62.20
2019-04-16T06:15:41.850Z,61.50
2019-04-16T06:18:40.285Z,60.40
2019-04-16T06:21:32.968Z,60.00
2019-04-16T06:24:14.357Z,59.50
2019-04-16T06:26:57.427Z,58.80
2019-04-16T06:29:47.004Z,58.20
2019-04-16T06:33:03.768Z,58.50
2019-04-16T06:35:59.382Z,58.30
2019-04-16T06:38:49.394Z,57.00
2019-04-16T06:41:47.840Z,56.60
2019-04-16T06:44:21.804Z,56.70
2019-04-16T06:47:10.478Z,56.40
2019-04-16T06:50:11.898Z,56.30
2019-04-16T06:53:04.575Z,55.50
2019-04-16T06:56:15.277Z,55.10
2019-04-16T06:58:57.247Z,55.10
2019-04-16T07:01:53.762Z,54.80
2019-04-16T07:04:51.903Z,54.40
2019-04-16T07:07:52.609Z,54.20
2019-04-16T07:11:03.310Z,53.60
2019-04-16T07:14:22.431Z,53.60
2019-04-16T07:17:36.427Z,53.10
2019-04-16T07:20:36.437Z,52.80
2019-04-16T07:27:03.803Z,52.50
2019-04-16T07:30:32.058Z,51.50
2019-04-16T07:34:11.747Z,51.50
2019-04-16T07:38:04.814Z,50.40
2019-04-16T07:41:10.970Z,50.30
2019-04-16T07:44:27.428Z,50.30
2019-04-16T07:55:07.399Z,49.70
2019-04-16T08:01:25.056Z,48.80
2019-04-16T08:04:09.984Z,48.50
2019-04-16T08:06:40.606Z,48.30
2019-04-16T08:09:11.033Z,48.00
2019-04-16T08:11:54.100Z,47.40
2019-04-16T08:14:30.712Z,47.00
2019-04-16T08:17:09.737Z,46.70
2019-04-16T08:19:55.202Z,46.40
2019-04-16T08:22:30.145Z,46.40
2019-04-16T08:25:07.543Z,46.70
2019-04-16T08:27:42.812Z,47.00
2019-04-16T08:30:19.880Z,46.20
2019-04-16T08:32:55.250Z,46.40
2019-04-16T08:35:30.352Z,45.70
2019-04-16T08:38:07.989Z,45.20
2019-04-16T08:40:46.335Z,45.90
2019-04-16T08:43:26.754Z,45.60
2019-04-16T08:45:57.779Z,45.70
2019-04-16T08:48:29.617Z,45.00
2019-04-16T08:51:04.323Z,45.30
2019-04-16T08:53:35.569Z,44.90
2019-04-16T08:56:05.620Z,44.40
2019-04-16T08:58:38.362Z,44.90
2019-04-16T09:01:09.976Z,44.90
2019-04-16T09:03:40.503Z,44.70
2019-04-16T09:06:15.371Z,44.20
2019-04-16T09:08:56.673Z,44.80
2019-04-16T09:11:28.542Z,44.90
2019-04-16T09:39:49.473Z,43.20
2019-04-16T09:44:41.135Z,43.90
2019-04-16T10:16:38.782Z,41.60
2019-04-16T10:20:20.461Z,42.00
2019-04-16T10:31:46.444Z,41.50
2019-04-16T10:50:42.980Z,40.90
2019-04-16T11:36:59.602Z,36.90
2019-04-16T11:40:40.937Z,37.30
2019-04-16T11:52:04.375Z,34.20
2019-04-16T11:59:01.727Z,35.30
2019-04-16T12:02:06.996Z,34.30
2019-04-16T12:05:03.649Z,34.50
2019-04-16T12:08:16.209Z,34.90
2019-04-16T12:11:12.064Z,34.30
2019-04-16T12:13:54.022Z,34.20
2019-04-16T12:16:49.517Z,34.60
2019-04-16T12:19:44.715Z,35.60
2019-04-16T12:22:24.234Z,34.70
2019-04-16T12:25:26.600Z,34.90
2019-04-16T12:28:32.611Z,35.80
2019-04-16T12:31:17.764Z,35.20
2019-04-16T12:37:48.143Z,36.10
2019-04-16T12:40:55.205Z,36.30
2019-04-16T12:47:06.045Z,35.70
2019-04-16T12:50:18.064Z,36.20
2019-04-16T12:53:21.086Z,34.90
2019-04-16T12:56:41.148Z,35.40
2019-04-16T13:00:02.265Z,34.80
2019-04-16T13:02:52.096Z,35.90
2019-04-16T13:06:01.320Z,34.50
2019-04-16T13:08:55.688Z,33.90
2019-04-16T13:12:09.454Z,34.50
2019-04-16T13:15:18.557Z,35.40
2019-04-16T13:19:03.513Z,35.60
2019-04-16T13:22:29.071Z,34.00
2019-04-16T13:25:54.652Z,36.40
2019-04-16T13:29:20.173Z,35.00
2019-04-16T13:35:47.179Z,34.70
2019-04-16T13:39:02.567Z,34.60
2019-04-16T13:42:48.740Z,34.80
2019-04-16T14:00:21.785Z,38.10
2019-04-16T14:03:10.049Z,37.00
2019-04-16T14:10:54.146Z,36.80
2019-04-16T14:15:31.844Z,36.90
2019-04-16T14:28:51.498Z,37.70
2019-04-16T14:31:01.320Z,35.70
2019-04-16T14:33:51.295Z,34.00
2019-04-16T14:36:32.737Z,32.60
2019-04-16T14:39:18.382Z,33.10
2019-04-16T14:42:03.500Z,35.20
2019-04-16T14:44:41.191Z,35.20
2019-04-16T14:47:12.101Z,35.20
2019-04-16T14:49:42.937Z,36.30
2019-04-16T14:52:18.054Z,37.00
2019-04-16T14:54:54.778Z,37.30
2019-04-16T14:57:28.853Z,37.80
2019-04-16T15:00:23.547Z,38.60
2019-04-16T15:03:17.792Z,37.60
2019-04-16T15:06:19.640Z,37.90
2019-04-16T15:09:12.611Z,38.30
2019-04-16T15:12:07.483Z,37.50
2019-04-16T15:14:42.275Z,37.40
2019-04-16T15:17:29.444Z,37.90
2019-04-16T15:20:17.830Z,37.90
2019-04-16T15:23:12.452Z,37.30
2019-04-16T15:25:59.003Z,37.70
2019-04-16T15:28:34.431Z,38.20
2019-04-16T15:31:09.817Z,38.40
2019-04-16T15:34:02.493Z,38.70
2019-04-16T15:36:40.007Z,38.70
2019-04-16T15:39:24.299Z,39.30
2019-04-16T15:42:19.996Z,39.10
2019-04-16T15:45:03.446Z,39.10
2019-04-16T15:48:05.168Z,39.60
2019-04-16T15:50:53.539Z,39.60
2019-04-16T15:53:47.764Z,40.40
2019-04-16T15:56:44.933Z,40.90
2019-04-16T15:59:22.590Z,41.50
2019-04-16T16:02:10.974Z,41.80
2019-04-16T16:05:12.818Z,41.20
2019-04-16T16:07:55.996Z,41.10
2019-04-16T16:10:29.379Z,41.30
2019-04-16T16:12:59.803Z,41.60
2019-04-16T16:15:30.704Z,40.80
2019-04-16T16:18:04.255Z,40.70
2019-04-16T16:20:33.937Z,41.00
2019-04-16T16:23:08.249Z,41.10
2019-04-16T16:25:41.366Z,41.60
2019-04-16T16:28:13.844Z,41.90
2019-04-16T16:30:44.509Z,41.90
2019-04-16T16:33:15.425Z,42.20
2019-04-16T16:35:57.779Z,42.00
2019-04-16T16:38:21.059Z,42.30
2019-04-16T16:40:54.325Z,42.30
2019-04-16T16:43:25.095Z,42.60
2019-04-16T16:46:06.975Z,42.80
2019-04-16T16:48:37.363Z,43.20
2019-04-16T16:51:10.307Z,43.20
2019-04-16T16:54:02.108Z,43.20
2019-04-16T16:57:02.073Z,43.30
2019-04-16T16:59:47.622Z,43.50
2019-04-16T17:02:21.873Z,43.70
2019-04-16T17:04:54.634Z,43.70
2019-04-16T17:07:25.812Z,43.70
2019-04-16T17:09:59.669Z,44.20
2019-04-16T17:12:32.322Z,44.40
2019-04-16T17:15:09.048Z,44.60
2019-04-16T17:17:39.598Z,44.60
2019-04-16T17:20:10.252Z,45.20
2019-04-16T17:22:41.083Z,45.70
2019-04-16T17:25:12.579Z,45.90
2019-04-16T17:27:51.275Z,46.40
2019-04-16T17:30:16.282Z,46.70
2019-04-16T17:32:47.270Z,46.90
2019-04-16T17:35:18.078Z,47.00
2019-04-16T17:37:54.153Z,47.00
2019-04-16T17:40:44.109Z,47.00
2019-04-16T17:43:20.160Z,47.30
2019-04-16T17:46:42.527Z,47.00
2019-04-16T17:49:47.279Z,47.10
2019-04-16T17:52:25.420Z,47.40
2019-04-16T17:55:12.135Z,47.40
2019-04-16T17:58:03.512Z,47.50
2019-04-16T18:01:15.688Z,47.60
2019-04-16T18:04:10.471Z,47.80
2019-04-16T18:07:16.319Z,47.80
2019-04-16T18:10:00.086Z,48.10
2019-04-16T18:12:47.302Z,49.60
2019-04-16T18:15:26.323Z,50.90
2019-04-16T18:18:18.944Z,51.80
2019-04-16T18:20:59.367Z,52.50
2019-04-16T18:23:47.769Z,52.90
2019-04-16T18:26:56.107Z,53.10
2019-04-16T18:29:44.174Z,53.50
2019-04-16T18:32:27.622Z,53.90
2019-04-16T18:35:16.574Z,54.30
2019-04-16T18:38:02.602Z,54.80
2019-04-16T18:40:53.560Z,55.40
2019-04-16T18:43:58.607Z,55.60
2019-04-16T18:47:10.840Z,56.30
2019-04-16T18:49:47.408Z,56.50
2019-04-16T18:52:27.555Z,57.00
2019-04-16T18:55:01.265Z,57.30
2019-04-16T18:57:38.420Z,57.90
2019-04-16T19:00:24.611Z,58.20
2019-04-16T19:02:55.418Z,58.50
2019-04-16T19:05:26.549Z,58.90
2019-04-16T19:08:02.761Z,59.30
2019-04-16T19:10:34.737Z,59.10
2019-04-16T19:13:11.214Z,59.20
2019-04-16T19:15:38.143Z,59.30
2019-04-16T19:18:18.924Z,59.50
2019-04-16T19:20:40.956Z,59.70
2019-04-16T19:23:11.895Z,59.60
2019-04-16T19:25:42.366Z,59.70
2019-04-16T19:28:13.106Z,59.70
2019-04-16T19:30:43.743Z,59.90
2019-04-16T19:33:15.557Z,59.50
2019-04-16T19:35:50.869Z,59.70
2019-04-16T19:38:19.775Z,59.70
2019-04-16T19:40:50.885Z,59.70
2019-04-16T19:43:22.476Z,59.90
2019-04-16T19:45:53.011Z,60.00
2019-04-16T19:48:35.940Z,60.30
2019-04-16T19:51:08.933Z,60.60
2019-04-16T19:53:39.999Z,60.70
2019-04-16T19:56:10.786Z,61.20
2019-04-16T19:58:44.303Z,60.40
2019-04-16T20:01:14.620Z,60.70
2019-04-16T20:03:49.962Z,60.80
2019-04-16T20:06:25.261Z,61.10
2019-04-16T20:08:53.091Z,62.10
2019-04-16T20:11:23.958Z,61.70
2019-04-16T20:14:01.481Z,61.70
2019-04-16T20:16:29.779Z,61.60
2019-04-16T20:19:00.357Z,62.10
2019-04-16T20:21:31.101Z,62.90
2019-04-16T20:24:03.218Z,63.60
2019-04-16T20:26:33.923Z,63.90
2019-04-16T20:29:13.574Z,64.20
2019-04-16T20:31:42.105Z,64.40
2019-04-16T20:34:13.258Z,65.50
2019-04-16T20:36:44.263Z,66.20
2019-04-16T20:39:14.915Z,66.70
2019-04-16T20:41:47.178Z,67.50
2019-04-16T20:44:18.041Z,68.20
2019-04-16T20:46:48.512Z,68.70
2019-04-16T20:49:20.159Z,68.80
2019-04-16T20:51:50.526Z,68.80
2019-04-16T20:54:21.437Z,68.70
2019-04-16T20:56:53.060Z,69.80
2019-04-16T20:59:24.879Z,69.20
2019-04-16T21:01:55.868Z,69.60
2019-04-16T21:04:26.652Z,69.80
2019-04-16T21:07:01.923Z,70.10
2019-04-16T21:09:42.304Z,70.10
2019-04-16T21:12:13.832Z,70.30
2019-04-16T21:15:07.004Z,70.70
2019-04-16T21:17:45.189Z,71.00
2019-04-16T21:20:19.145Z,71.50
2019-04-16T21:22:50.153Z,71.60
2019-04-16T21:25:20.704Z,72.10
2019-04-16T21:27:57.713Z,72.70
2019-04-16T21:30:47.584Z,73.40
2019-04-16T21:33:29.662Z,74.60
2019-04-16T21:36:05.643Z,75.30
2019-04-16T21:38:52.292Z,75.80
2019-04-16T21:41:25.620Z,75.90
2019-04-16T21:44:13.190Z,76.60
2019-04-16T21:46:52.922Z,77.20
2019-04-16T21:49:38.316Z,77.10
2019-04-16T21:52:08.027Z,76.80
2019-04-16T21:54:47.842Z,76.10
2019-04-16T21:57:30.466Z,76.20
2019-04-16T22:00:12.842Z,76.70
2019-04-16T22:02:56.106Z,76.30
2019-04-16T22:05:39.070Z,76.50
2019-04-16T22:08:09.703Z,76.90
2019-04-16T22:10:41.443Z,77.00
2019-04-16T22:13:12.581Z,77.20
2019-04-16T22:15:42.985Z,77.40
2019-04-16T22:18:13.505Z,78.20
2019-04-16T22:20:44.141Z,78.30
2019-04-16T22:23:19.062Z,78.60
2019-04-16T22:25:52.300Z,78.50
2019-04-16T22:28:22.993Z,78.70
2019-04-16T22:30:53.422Z,78.90
2019-04-16T22:33:23.855Z,78.90
2019-04-16T22:35:54.455Z,79.10
2019-04-16T22:38:25.525Z,79.10
2019-04-16T22:41:14.852Z,79.20
2019-04-16T22:44:04.561Z,79.30
2019-04-16T22:46:48.408Z,79.20
2019-04-16T22:49:23.180Z,79.40
2019-04-16T22:51:53.771Z,79.30
2019-04-16T22:54:24.287Z,79.80
2019-04-16T22:57:19.435Z,79.90
2019-04-16T22:59:52.053Z,80.30
2019-04-16T23:02:25.705Z,80.30
2019-04-16T23:04:58.542Z,80.40
2019-04-16T23:07:30.819Z,80.30
2019-04-16T23:10:01.870Z,80.30
2019-04-16T23:12:39.473Z,80.70
2019-04-16T23:15:13.978Z,81.20
2019-04-16T23:17:45.994Z,81.00
2019-04-16T23:20:28.638Z,80.30
2019-04-16T23:22:55.391Z,80.10
2019-04-16T23:25:30.180Z,80.80
2019-04-16T23:28:00.691Z,81.30
2019-04-16T23:30:31.156Z,82.50
2019-04-16T23:33:01.938Z,81.50
2019-04-16T23:35:32.943Z,81.50
2019-04-16T23:38:04.517Z,81.80
2019-04-16T23:40:34.900Z,82.20
2019-04-16T23:43:23.129Z,81.50
2019-04-16T23:46:12.582Z,81.70
2019-04-16T23:48:52.832Z,81.90
2019-04-16T23:51:35.825Z,81.40
2019-04-16T23:54:19.001Z,80.50
2019-04-16T23:56:53.887Z,80.40
2019-04-16T23:59:32.669Z,81.20
